createdAt,value
2022-10-18T00:01:55.682Z,12.27
2022-10-18T00:09:43.093Z,11.90
2022-10-18T00:12:10.521Z,13.47
2022-10-18T00:14:37.771Z,10.70
2022-10-18T00:17:05.184Z,7.23
2022-10-18T00:19:32.961Z,16.40
2022-10-18T00:22:00.106Z,9.13
2022-10-18T00:24:27.331Z,13.43
2022-10-18T00:29:42.955Z,11.67
2022-10-18T00:32:11.502Z,6.53
2022-10-18T00:34:39.426Z,10.63
2022-10-18T00:37:07.103Z,10.03
2022-10-18T00:39:34.514Z,11.07
2022-10-18T00:42:02.833Z,6.63
2022-10-18T00:52:49.533Z,13.67
2022-10-18T00:55:17.711Z,15.20
2022-10-18T00:57:46.837Z,6.73
2022-10-18T01:00:15.382Z,12.53
2022-10-18T01:02:45.303Z,15.10
2022-10-18T01:05:14.442Z,15.17
2022-10-18T01:16:33.642Z,15.57
2022-10-18T01:19:04.071Z,8.93
2022-10-18T01:21:43.955Z,10.13
2022-10-18T01:24:41.603Z,12.53
2022-10-18T01:27:41.793Z,9.30
2022-10-18T01:30:35.284Z,14.87
2022-10-18T01:39:45.784Z,10.93
2022-10-18T01:42:17.383Z,8.27
2022-10-18T01:44:50.474Z,6.87
2022-10-18T01:47:23.996Z,7.47
2022-10-18T01:50:00.563Z,8.30
2022-10-18T01:52:28.034Z,7.47
2022-10-18T01:54:57.257Z,8.47
2022-10-18T02:01:54.283Z,8.00
2022-10-18T02:04:34.173Z,18.30
2022-10-18T02:07:08.013Z,7.90
2022-10-18T02:09:41.464Z,8.93
2022-10-18T02:12:12.184Z,7.67
2022-10-18T02:14:40.811Z,15.27
2022-10-18T02:17:22.886Z,14.00
2022-10-18T02:22:46.007Z,7.10
2022-10-18T02:25:18.297Z,11.63
2022-10-18T02:28:00.154Z,20.33
2022-10-18T02:30:33.724Z,8.07
2022-10-18T02:33:08.224Z,7.57
2022-10-18T02:35:39.994Z,15.33
2022-10-18T02:38:11.700Z,17.17
2022-10-18T02:44:55.546Z,26.40
2022-10-18T02:47:23.091Z,183.10
2022-10-18T02:49:50.513Z,88.07
2022-10-18T02:52:17.751Z,34.23
2022-10-18T02:54:45.531Z,39.90
2022-10-18T02:57:12.854Z,44.67
2022-10-18T02:59:39.823Z,10.47
2022-10-18T03:07:06.620Z,4.87
2022-10-18T03:09:35.453Z,4.53
2022-10-18T03:12:03.825Z,4.27
2022-10-18T03:14:32.554Z,42.87
2022-10-18T03:17:04.238Z,13.33
2022-10-18T03:19:34.990Z,4.00
2022-10-18T03:22:03.848Z,24.50
2022-10-18T03:32:16.196Z,2.90
2022-10-18T03:34:43.658Z,4.63
2022-10-18T03:37:10.575Z,2.40
2022-10-18T03:39:37.848Z,3.60
2022-10-18T03:42:04.885Z,2.37
2022-10-18T03:44:32.436Z,1.83
2022-10-18T03:46:59.846Z,2.47
2022-10-18T03:53:20.835Z,2.63
2022-10-18T03:55:51.925Z,4.37
2022-10-18T03:58:20.133Z,4.90
2022-10-18T04:00:50.949Z,5.83
2022-10-18T04:03:18.845Z,9.33
2022-10-18T04:05:46.530Z,20.70
2022-10-18T04:08:14.880Z,6.30
2022-10-18T04:10:45.641Z,44.70
2022-10-18T04:16:50.460Z,2.23
2022-10-18T04:19:18.276Z,1.80
2022-10-18T04:21:46.017Z,2.27
2022-10-18T04:24:14.272Z,2.60
2022-10-18T04:26:42.556Z,2.27
2022-10-18T04:29:09.951Z,2.03
2022-10-18T04:31:37.649Z,2.10
2022-10-18T04:34:06.816Z,2.70
2022-10-18T04:41:40.598Z,3.17
2022-10-18T04:44:08.658Z,3.03
2022-10-18T04:46:36.093Z,3.23
2022-10-18T04:49:03.848Z,3.97
2022-10-18T04:51:31.128Z,1.97
2022-10-18T04:53:58.655Z,1.83
2022-10-18T04:56:26.168Z,4.03
2022-10-18T05:01:32.899Z,2.93
2022-10-18T05:04:28.038Z,1.40
2022-10-18T05:06:55.397Z,3.80
2022-10-18T05:09:24.199Z,3.77
2022-10-18T05:11:51.845Z,1.67
2022-10-18T05:14:19.938Z,2.13
2022-10-18T05:16:48.045Z,0.67
2022-10-18T05:19:15.467Z,5.50
2022-10-18T05:26:48.848Z,23.23
2022-10-18T05:29:16.583Z,1.30
2022-10-18T05:31:44.126Z,25.83
2022-10-18T05:34:11.566Z,0.70
2022-10-18T05:36:38.984Z,6.23
2022-10-18T05:39:07.084Z,1.20
2022-10-18T05:41:35.158Z,1.40
2022-10-18T05:47:01.966Z,14.37
2022-10-18T05:49:29.245Z,2.33
2022-10-18T05:51:56.645Z,14.47
2022-10-18T05:54:23.948Z,0.70
2022-10-18T05:56:51.199Z,1.17
2022-10-18T05:59:18.585Z,0.73
2022-10-18T06:01:45.866Z,1.00
2022-10-18T06:09:17.377Z,0.70
2022-10-18T06:11:45.296Z,0.97
2022-10-18T06:14:12.876Z,2.83
2022-10-18T06:16:40.153Z,1.33
2022-10-18T06:19:07.525Z,0.80
2022-10-18T06:21:35.175Z,1.43
2022-10-18T06:24:02.478Z,1.10
2022-10-18T06:26:31.963Z,0.87
2022-10-18T06:31:39.109Z,1.20
2022-10-18T06:34:06.506Z,1.10
2022-10-18T06:36:34.126Z,0.80
2022-10-18T06:39:02.170Z,1.53
2022-10-18T06:41:29.475Z,0.90
2022-10-18T06:43:58.099Z,4.27
2022-10-18T06:46:26.415Z,1.10
2022-10-18T06:52:09.925Z,25.73
2022-10-18T06:54:37.638Z,14.93
2022-10-18T06:57:05.688Z,1.43
2022-10-18T06:59:33.110Z,1.10
2022-10-18T07:02:00.526Z,1.30
2022-10-18T07:04:31.536Z,46.77
2022-10-18T07:06:59.517Z,4.00
2022-10-18T07:12:11.507Z,10.50
2022-10-18T07:14:38.788Z,1.67
2022-10-18T07:17:10.558Z,1.20
2022-10-18T07:19:38.405Z,1.47
2022-10-18T07:22:06.347Z,2.87
2022-10-18T07:27:01.268Z,9.97
2022-10-18T07:29:29.656Z,2.03
2022-10-18T07:34:44.388Z,179.47
2022-10-18T07:37:12.859Z,203.73
2022-10-18T07:39:40.410Z,336.73
2022-10-18T07:42:07.816Z,79.80
2022-10-18T07:44:35.856Z,261.47
2022-10-18T07:47:03.308Z,131.37
2022-10-18T07:49:31.529Z,121.23
2022-10-18T07:56:45.837Z,18.00
2022-10-18T07:59:15.255Z,181.50
2022-10-18T08:01:44.937Z,76.47
2022-10-18T08:04:16.242Z,125.77
2022-10-18T08:06:43.987Z,336.53
2022-10-18T08:09:12.607Z,578.27
2022-10-18T08:11:40.165Z,284.37
2022-10-18T08:22:28.158Z,325.23
2022-10-18T08:24:57.846Z,233.00
2022-10-18T08:27:26.137Z,329.87
2022-10-18T08:29:54.038Z,264.10
2022-10-18T08:32:21.610Z,195.23
2022-10-18T08:34:49.449Z,68.10
2022-10-18T08:37:17.785Z,93.80
2022-10-18T08:44:20.798Z,1.50
2022-10-18T08:46:52.436Z,5.17
2022-10-18T08:49:28.552Z,4.53
2022-10-18T08:51:58.148Z,1.47
2022-10-18T08:54:32.749Z,2.80
2022-10-18T08:57:06.978Z,1.10
2022-10-18T08:59:38.957Z,0.50
2022-10-18T09:07:59.335Z,0.80
2022-10-18T09:10:51.269Z,0.90
2022-10-18T09:13:37.323Z,3.53
2022-10-18T09:16:08.385Z,1.13
2022-10-18T09:18:52.032Z,0.60
2022-10-18T09:21:23.845Z,0.80
2022-10-18T09:24:03.187Z,1.40
2022-10-18T09:29:37.560Z,1.33
2022-10-18T09:32:50.368Z,0.90
2022-10-18T09:35:25.137Z,2.23
2022-10-18T09:38:13.013Z,2.83
2022-10-18T09:41:29.907Z,0.43
2022-10-18T09:44:17.865Z,0.60
2022-10-18T09:50:32.657Z,3.20
2022-10-18T10:07:12.762Z,4.93
2022-10-18T10:09:44.236Z,2.70
2022-10-18T10:12:28.875Z,3.10
2022-10-18T10:15:09.858Z,0.70
2022-10-18T10:17:37.625Z,1.50
2022-10-18T10:20:15.967Z,0.67
2022-10-18T10:30:41.126Z,12.97
2022-10-18T10:33:35.021Z,2.17
2022-10-18T10:36:07.505Z,1.40
2022-10-18T10:38:39.785Z,9.70
2022-10-18T10:41:20.405Z,3.00
2022-10-18T10:43:49.196Z,8.13
2022-10-18T10:46:35.967Z,5.73
2022-10-18T10:52:08.678Z,5.00
2022-10-18T10:54:51.150Z,3.90
2022-10-18T10:57:24.528Z,2.27
2022-10-18T11:00:05.937Z,7.70
2022-10-18T11:03:05.889Z,5.07
2022-10-18T11:06:04.406Z,5.93
2022-10-18T11:08:43.549Z,3.73
2022-10-18T11:16:57.616Z,7.67
2022-10-18T11:20:01.558Z,9.60
2022-10-18T11:26:53.853Z,2.60
2022-10-18T11:29:43.725Z,2.70
2022-10-18T11:32:33.684Z,3.23
2022-10-18T11:35:44.356Z,9.63
2022-10-18T11:38:26.726Z,2.00
2022-10-18T11:41:24.418Z,3.53
2022-10-18T11:44:05.288Z,2.17
2022-10-18T11:50:26.508Z,3.70
2022-10-18T11:56:18.487Z,3.60
2022-10-18T11:59:04.314Z,2.00
2022-10-18T12:01:38.038Z,5.00
2022-10-18T12:04:12.248Z,2.37
2022-10-18T12:06:47.569Z,2.40
2022-10-18T12:09:24.659Z,7.40
2022-10-18T12:17:43.952Z,1.20
2022-10-18T12:20:21.308Z,2.47
2022-10-18T12:22:53.128Z,5.77
2022-10-18T12:25:20.525Z,4.03
2022-10-18T12:27:57.270Z,4.80
2022-10-18T12:30:31.607Z,1.80
2022-10-18T12:49:30.977Z,2.63
2022-10-18T12:52:00.535Z,1.03
2022-10-18T12:54:31.605Z,2.20
2022-10-18T12:57:00.908Z,1.47
2022-10-18T12:59:50.850Z,5.57
2022-10-18T13:02:30.022Z,1.43
2022-10-18T13:13:38.152Z,2.60
2022-10-18T13:19:40.010Z,5.73
2022-10-18T13:22:54.185Z,6.93
2022-10-18T13:25:26.073Z,4.50
2022-10-18T13:29:01.106Z,3.07
2022-10-18T13:32:12.675Z,0.90
2022-10-18T13:35:35.595Z,2.17
2022-10-18T13:41:41.487Z,5.90
2022-10-18T13:44:48.839Z,1.33
2022-10-18T13:47:35.332Z,1.87
2022-10-18T13:50:45.379Z,1.33
2022-10-18T13:53:42.276Z,4.07
2022-10-18T13:56:33.039Z,6.67
2022-10-18T14:04:06.818Z,3.60
2022-10-18T14:06:39.252Z,4.27
2022-10-18T14:09:26.400Z,1.30
2022-10-18T14:12:22.607Z,6.10
2022-10-18T14:14:58.215Z,1.47
2022-10-18T14:17:35.489Z,1.30
2022-10-18T14:22:57.736Z,2.93
2022-10-18T14:25:30.114Z,1.57
2022-10-18T14:28:11.400Z,3.70
2022-10-18T14:30:58.885Z,2.97
2022-10-18T14:33:33.900Z,5.03
2022-10-18T14:36:12.905Z,2.97
2022-10-18T14:44:12.686Z,1.67
2022-10-18T14:49:31.275Z,6.80
2022-10-18T14:52:02.070Z,1.77
2022-10-18T14:54:33.487Z,5.37
2022-10-18T14:57:02.077Z,2.20
2022-10-18T14:59:33.996Z,1.77
2022-10-18T15:02:04.535Z,5.87
2022-10-18T15:09:08.355Z,4.20
2022-10-18T15:11:36.758Z,2.17
2022-10-18T15:14:08.617Z,1.80
2022-10-18T15:16:39.024Z,2.40
2022-10-18T15:19:24.808Z,5.37
2022-10-18T15:22:19.906Z,1.50
2022-10-18T15:24:44.707Z,1.87
2022-10-18T15:27:21.147Z,1.90
2022-10-18T15:35:14.358Z,9.20
2022-10-18T15:37:46.428Z,3.90
2022-10-18T15:40:38.775Z,2.80
2022-10-18T15:43:24.069Z,3.27
2022-10-18T15:45:56.642Z,3.27
2022-10-18T15:48:30.018Z,3.53
2022-10-18T15:51:15.136Z,7.10
2022-10-18T15:58:44.775Z,3.20
2022-10-18T16:01:19.538Z,6.27
2022-10-18T16:03:47.886Z,6.30
2022-10-18T16:06:20.558Z,4.17
2022-10-18T16:08:52.248Z,5.57
2022-10-18T16:11:24.290Z,4.60
2022-10-18T16:13:59.577Z,3.80
2022-10-18T16:21:40.236Z,5.43
2022-10-18T16:24:09.029Z,11.07
2022-10-18T16:26:39.280Z,8.00
2022-10-18T16:29:16.083Z,4.57
2022-10-18T16:31:48.158Z,8.43
2022-10-18T16:34:16.439Z,6.93
2022-10-18T16:36:46.633Z,7.93
2022-10-18T16:44:20.017Z,6.90
2022-10-18T16:46:51.132Z,9.23
2022-10-18T16:49:27.346Z,6.43
2022-10-18T16:51:56.537Z,9.27
2022-10-18T16:54:24.476Z,9.57
2022-10-18T16:56:54.787Z,8.37
2022-10-18T16:59:27.370Z,8.27
2022-10-18T17:07:40.405Z,8.17
2022-10-18T17:10:12.358Z,7.67
2022-10-18T17:12:41.858Z,9.80
2022-10-18T17:15:11.119Z,12.57
2022-10-18T17:17:40.566Z,10.90
2022-10-18T17:20:10.248Z,11.47
2022-10-18T17:22:40.345Z,13.83
2022-10-18T17:25:09.398Z,12.03
2022-10-18T17:34:52.234Z,16.17
2022-10-18T17:37:19.648Z,10.10
2022-10-18T17:39:55.032Z,13.60
2022-10-18T17:42:24.218Z,8.43
2022-10-18T17:44:55.501Z,11.93
2022-10-18T17:47:26.236Z,9.33
2022-10-18T17:49:55.138Z,12.60
2022-10-18T17:52:26.927Z,12.30
2022-10-18T18:03:17.275Z,15.73
2022-10-18T18:05:51.549Z,18.20
2022-10-18T18:08:20.738Z,13.63
2022-10-18T18:10:58.038Z,18.87
2022-10-18T18:13:28.776Z,15.43
2022-10-18T18:16:00.155Z,16.53
2022-10-18T18:18:31.327Z,16.90
2022-10-18T18:23:58.395Z,16.77
2022-10-18T18:26:29.417Z,16.33
2022-10-18T18:29:00.529Z,14.43
2022-10-18T18:31:34.520Z,14.57
2022-10-18T18:34:07.660Z,19.00
2022-10-18T18:36:39.068Z,15.97
2022-10-18T18:39:21.438Z,17.40
2022-10-18T18:47:03.581Z,17.53
2022-10-18T18:49:35.797Z,17.37
2022-10-18T18:54:40.435Z,21.03
2022-10-18T18:57:10.888Z,21.00
2022-10-18T18:59:40.927Z,20.90
2022-10-18T19:02:15.015Z,20.87
2022-10-18T19:04:48.947Z,17.33
2022-10-18T19:12:26.705Z,25.77
2022-10-18T19:14:57.268Z,20.03
2022-10-18T19:17:27.807Z,27.23
2022-10-18T19:19:58.353Z,19.37
2022-10-18T19:22:30.865Z,24.97
2022-10-18T19:24:59.437Z,17.77
2022-10-18T19:27:46.405Z,17.57
2022-10-18T19:33:01.145Z,21.23
2022-10-18T19:35:35.859Z,20.63
2022-10-18T19:38:05.766Z,25.30
2022-10-18T19:40:38.876Z,16.03
2022-10-18T19:43:12.956Z,18.37
2022-10-18T19:45:42.734Z,19.57
2022-10-18T19:48:13.624Z,22.47
2022-10-18T19:58:33.147Z,16.53
2022-10-18T20:01:04.754Z,15.67
2022-10-18T20:03:33.742Z,27.50
2022-10-18T20:06:03.058Z,19.97
2022-10-18T20:08:33.669Z,17.47
2022-10-18T20:11:01.886Z,19.97
2022-10-18T20:13:31.626Z,18.70
2022-10-18T20:20:59.674Z,21.13
2022-10-18T20:23:28.936Z,14.77
2022-10-18T20:25:59.325Z,18.73
2022-10-18T20:28:28.127Z,18.40
2022-10-18T20:31:03.997Z,18.57
2022-10-18T20:33:32.668Z,14.73
2022-10-18T20:36:07.948Z,13.20
2022-10-18T20:44:26.499Z,14.30
2022-10-18T20:46:54.148Z,15.57
2022-10-18T20:49:21.644Z,19.13
2022-10-18T20:51:49.035Z,17.10
2022-10-18T20:54:18.727Z,20.77
2022-10-18T20:56:46.689Z,16.60
2022-10-18T20:59:14.638Z,14.23
2022-10-18T21:06:50.037Z,21.27
2022-10-18T21:09:19.889Z,21.63
2022-10-18T21:11:49.740Z,21.70
2022-10-18T21:14:19.717Z,26.30
2022-10-18T21:16:49.899Z,28.97
2022-10-18T21:19:24.607Z,20.87
2022-10-18T21:21:56.119Z,16.23
2022-10-18T21:31:22.688Z,29.97
2022-10-18T21:33:54.425Z,21.47
2022-10-18T21:36:24.545Z,28.47
2022-10-18T21:38:52.699Z,22.30
2022-10-18T21:41:27.738Z,22.27
2022-10-18T21:43:55.985Z,21.07
2022-10-18T21:46:26.921Z,23.60
2022-10-18T22:02:19.036Z,19.57
2022-10-18T22:04:49.338Z,21.73
2022-10-18T22:07:17.846Z,18.23
2022-10-18T22:09:45.601Z,23.37
2022-10-18T22:12:12.799Z,26.93
2022-10-18T22:14:40.765Z,18.50
2022-10-18T22:17:08.437Z,14.90
2022-10-18T22:27:32.770Z,18.20
2022-10-18T22:30:00.309Z,21.20
2022-10-18T22:32:27.899Z,19.13
2022-10-18T22:34:55.368Z,18.33
2022-10-18T22:37:22.718Z,20.77
2022-10-18T22:39:50.196Z,22.83
2022-10-18T22:42:17.438Z,21.90
2022-10-18T22:50:23.097Z,28.90
2022-10-18T22:52:53.951Z,19.33
2022-10-18T22:55:22.678Z,19.80
2022-10-18T22:57:49.928Z,21.77
2022-10-18T23:00:17.735Z,29.90
2022-10-18T23:02:49.219Z,24.67
2022-10-18T23:05:20.867Z,25.60
2022-10-18T23:07:49.886Z,24.27
2022-10-18T23:15:08.891Z,25.77
2022-10-18T23:17:39.638Z,20.43
2022-10-18T23:20:08.406Z,26.43
2022-10-18T23:22:36.994Z,27.83
2022-10-18T23:25:05.186Z,26.50
2022-10-18T23:27:32.481Z,29.97
2022-10-18T23:29:59.898Z,35.53
2022-10-18T23:32:28.057Z,27.63
2022-10-18T23:34:56.308Z,27.17
2022-10-18T23:42:33.616Z,26.20
2022-10-18T23:45:02.185Z,32.17
2022-10-18T23:47:29.584Z,37.23
2022-10-18T23:49:58.634Z,34.00
2022-10-18T23:52:26.385Z,22.43
2022-10-18T23:54:54.357Z,29.17
2022-10-18T23:57:21.915Z,39.37
2022-10-18T23:59:50.800Z,36.80
